createdAt,value
2022-09-07T00:00:06.083Z,97756.88
2022-09-07T00:02:32.941Z,97759.34
2022-09-07T00:04:59.861Z,97760.34
2022-09-07T00:07:26.813Z,97748.56
2022-09-07T00:09:53.892Z,97751.28
2022-09-07T00:12:20.723Z,97740.59
2022-09-07T00:14:47.765Z,97739.47
2022-09-07T00:17:14.594Z,97739.28
2022-09-07T00:19:42.717Z,97733.88
2022-09-07T00:22:09.587Z,97724.72
2022-09-07T00:24:36.706Z,97721.34
2022-09-07T00:27:03.569Z,97723.72
2022-09-07T00:29:30.331Z,97713.25
2022-09-07T00:31:57.348Z,97711.78
2022-09-07T00:34:24.411Z,97722.06
2022-09-07T00:36:51.375Z,97727.38
2022-09-07T00:39:18.187Z,97729.72
2022-09-07T00:41:45.431Z,97724.31
2022-09-07T00:44:43.267Z,97724.47
2022-09-07T00:47:21.342Z,97716.88
2022-09-07T00:49:55.022Z,97725.84
2022-09-07T00:52:23.567Z,97723.25
2022-09-07T00:54:59.879Z,97720.59
2022-09-07T00:57:28.239Z,97718.94
2022-09-07T00:59:57.577Z,97717.13
2022-09-07T01:02:26.480Z,97712.16
2022-09-07T01:05:04.503Z,97702.69
2022-09-07T01:07:34.311Z,97713.22
2022-09-07T01:10:02.054Z,97711.19
2022-09-07T01:12:29.013Z,97708.19
2022-09-07T01:14:56.005Z,97717.63
2022-09-07T01:17:45.803Z,97707.03
2022-09-07T01:20:27.364Z,97707.19
2022-09-07T01:23:32.254Z,97699.75
2022-09-07T01:26:27.012Z,97697.63
2022-09-07T01:29:11.371Z,97703.63
2022-09-07T01:32:13.995Z,97695.00
2022-09-07T01:34:43.802Z,97692.88
2022-09-07T01:37:32.335Z,97686.09
2022-09-07T01:40:14.465Z,97680.44
2022-09-07T01:43:01.090Z,97684.28
2022-09-07T01:45:32.231Z,97678.97
2022-09-07T01:48:04.692Z,97676.47
2022-09-07T01:50:38.806Z,97680.00
2022-09-07T01:53:26.678Z,97686.50
2022-09-07T01:55:59.653Z,97679.53
2022-09-07T01:58:31.855Z,97674.22
2022-09-07T02:01:08.359Z,97673.88
2022-09-07T02:04:10.746Z,97673.88
2022-09-07T02:06:43.036Z,97672.09
2022-09-07T02:09:28.178Z,97658.19
2022-09-07T02:11:55.181Z,97650.75
2022-09-07T02:14:29.292Z,97651.59
2022-09-07T02:17:06.412Z,97648.94
2022-09-07T02:19:42.602Z,97648.94
2022-09-07T02:22:16.187Z,97650.09
2022-09-07T02:24:52.615Z,97649.59
2022-09-07T02:27:28.141Z,97639.97
2022-09-07T02:29:55.133Z,97639.31
2022-09-07T02:32:21.909Z,97636.00
2022-09-07T02:34:49.623Z,97631.88
2022-09-07T02:37:18.147Z,97637.38
2022-09-07T02:39:45.773Z,97632.06
2022-09-07T02:42:12.693Z,97623.09
2022-09-07T02:44:41.106Z,97630.53
2022-09-07T02:47:46.088Z,97632.38
2022-09-07T02:50:29.305Z,97627.50
2022-09-07T02:53:10.905Z,97636.31
2022-09-07T02:55:43.842Z,97628.38
2022-09-07T02:58:35.093Z,97620.75
2022-09-07T03:01:32.209Z,97625.22
2022-09-07T03:04:34.382Z,97617.63
2022-09-07T03:07:11.037Z,97613.97
2022-09-07T03:09:42.334Z,97606.19
2022-09-07T03:12:10.353Z,97609.38
2022-09-07T03:14:40.029Z,97613.16
2022-09-07T03:17:08.073Z,97608.19
2022-09-07T03:19:34.821Z,97609.38
2022-09-07T03:22:02.271Z,97602.28
2022-09-07T03:24:29.520Z,97597.81
2022-09-07T03:26:56.903Z,97603.59
2022-09-07T03:29:23.839Z,97598.66
2022-09-07T03:31:50.962Z,97599.63
2022-09-07T03:34:17.676Z,97603.47
2022-09-07T03:36:44.769Z,97599.63
2022-09-07T03:39:13.400Z,97610.59
2022-09-07T03:41:40.494Z,97608.97
2022-09-07T03:44:08.239Z,97612.81
2022-09-07T03:46:35.915Z,97607.50
2022-09-07T03:49:03.228Z,97608.31
2022-09-07T03:51:31.251Z,97617.59
2022-09-07T03:53:59.853Z,97613.09
2022-09-07T03:56:27.499Z,97608.97
2022-09-07T03:58:55.692Z,97610.63
2022-09-07T04:01:24.771Z,97613.47
2022-09-07T04:03:52.334Z,97614.28
2022-09-07T04:06:20.438Z,97612.28
2022-09-07T04:08:47.407Z,97610.00
2022-09-07T04:11:17.117Z,97610.28
2022-09-07T04:13:47.597Z,97625.31
2022-09-07T04:16:26.101Z,97629.41
2022-09-07T04:18:56.500Z,97627.22
2022-09-07T04:21:24.480Z,97621.06
2022-09-07T04:23:52.352Z,97638.25
2022-09-07T04:26:29.672Z,97639.56
2022-09-07T04:28:57.133Z,97632.53
2022-09-07T04:31:24.337Z,97635.63
2022-09-07T04:33:52.017Z,97638.91
2022-09-07T04:36:20.457Z,97638.53
2022-09-07T04:38:48.492Z,97631.69
2022-09-07T04:41:17.655Z,97646.19
2022-09-07T04:43:46.273Z,97645.00
2022-09-07T04:46:22.789Z,97650.78
2022-09-07T04:48:51.523Z,97645.19
2022-09-07T04:51:19.482Z,97641.84
2022-09-07T04:53:51.747Z,97633.59
2022-09-07T04:56:19.710Z,97638.56
2022-09-07T04:58:47.819Z,97642.59
2022-09-07T05:01:20.566Z,97644.81
2022-09-07T05:03:48.020Z,97648.72
2022-09-07T05:06:16.943Z,97648.66
2022-09-07T05:08:46.743Z,97654.16
2022-09-07T05:11:15.287Z,97653.25
2022-09-07T05:13:42.333Z,97650.66
2022-09-07T05:16:10.289Z,97644.91
2022-09-07T05:18:37.885Z,97649.19
2022-09-07T05:21:16.453Z,97653.97
2022-09-07T05:23:44.416Z,97657.19
2022-09-07T05:26:12.480Z,97653.06
2022-09-07T05:28:39.707Z,97652.00
2022-09-07T05:31:19.627Z,97657.72
2022-09-07T05:36:35.711Z,97661.75
2022-09-07T05:39:03.241Z,97660.66
2022-09-07T05:41:30.138Z,97664.16
2022-09-07T05:46:44.039Z,97648.34
2022-09-07T05:49:10.984Z,97649.63
2022-09-07T05:51:38.355Z,97668.25
2022-09-07T05:54:05.310Z,97664.38
2022-09-07T05:56:35.161Z,97666.72
2022-09-07T05:59:02.131Z,97670.41
2022-09-07T06:01:29.015Z,97662.19
2022-09-07T06:03:55.866Z,97666.09
2022-09-07T06:06:22.846Z,97661.31
2022-09-07T06:08:52.686Z,97657.63
2022-09-07T06:11:22.227Z,97669.06
2022-09-07T06:13:49.289Z,97677.41
2022-09-07T06:16:17.651Z,97675.91
2022-09-07T06:18:46.542Z,97669.47
2022-09-07T06:21:18.927Z,97676.75
2022-09-07T06:23:46.856Z,97677.50
2022-09-07T06:26:15.093Z,97686.97
2022-09-07T06:28:49.472Z,97684.44
2022-09-07T06:31:20.471Z,97680.84
2022-09-07T06:33:48.364Z,97676.38
2022-09-07T06:36:23.253Z,97679.22
2022-09-07T06:38:51.103Z,97690.00
2022-09-07T06:44:07.484Z,97684.22
2022-09-07T06:49:23.514Z,97673.97
2022-09-07T06:51:50.936Z,97672.56
2022-09-07T06:57:09.269Z,97669.84
2022-09-07T06:59:37.277Z,97671.81
2022-09-07T07:02:05.334Z,97666.41
2022-09-07T07:04:34.168Z,97671.13
2022-09-07T07:07:04.817Z,97680.56
2022-09-07T07:09:31.553Z,97673.13
2022-09-07T07:11:58.650Z,97676.00
2022-09-07T07:14:25.335Z,97685.00
2022-09-07T07:16:52.292Z,97684.94
2022-09-07T07:19:19.045Z,97683.31
2022-09-07T07:22:13.998Z,97692.16
2022-09-07T07:24:33.027Z,97693.31
2022-09-07T07:26:59.980Z,97694.97
2022-09-07T07:29:28.247Z,97692.50
2022-09-07T07:31:55.302Z,97696.00
2022-09-07T07:34:22.653Z,97698.88
2022-09-07T07:36:49.618Z,97696.19
2022-09-07T07:42:05.918Z,97692.06
2022-09-07T07:44:33.206Z,97695.63
2022-09-07T07:47:00.181Z,97694.78
2022-09-07T07:49:27.613Z,97695.44
2022-09-07T07:54:43.149Z,97689.28
2022-09-07T07:57:10.412Z,97696.06
2022-09-07T07:59:38.156Z,97697.97
2022-09-07T08:02:13.710Z,97698.31
2022-09-07T08:04:40.892Z,97696.22
2022-09-07T08:07:11.028Z,97701.19
2022-09-07T08:09:42.874Z,97699.63
2022-09-07T08:12:12.197Z,97699.44
2022-09-07T08:14:43.097Z,97696.44
2022-09-07T08:17:11.680Z,97694.88
2022-09-07T08:19:39.018Z,97694.28
2022-09-07T08:22:06.730Z,97694.56
2022-09-07T08:24:33.818Z,97702.72
2022-09-07T08:27:00.702Z,97699.78
2022-09-07T08:29:31.245Z,97691.41
2022-09-07T08:32:01.901Z,97693.16
2022-09-07T08:34:28.798Z,97689.34
2022-09-07T08:36:55.418Z,97688.97
2022-09-07T08:39:22.406Z,97692.13
2022-09-07T08:42:03.843Z,97687.09
2022-09-07T08:44:37.583Z,97688.06
2022-09-07T08:47:12.606Z,97691.84
2022-09-07T08:50:11.349Z,97684.88
2022-09-07T08:52:50.468Z,97687.53
2022-09-07T08:55:31.867Z,97686.72
2022-09-07T08:58:27.121Z,97676.47
2022-09-07T09:06:52.613Z,97682.56
2022-09-07T09:09:46.186Z,97686.72
2022-09-07T09:12:15.998Z,97680.75
2022-09-07T09:14:56.757Z,97673.19
2022-09-07T09:17:38.357Z,97674.28
2022-09-07T09:20:14.121Z,97670.53
2022-09-07T09:22:41.197Z,97677.63
2022-09-07T09:25:22.102Z,97674.34
2022-09-07T09:27:49.571Z,97672.81
2022-09-07T09:30:24.334Z,97671.22
2022-09-07T09:33:11.436Z,97665.72
2022-09-07T09:35:39.525Z,97658.78
2022-09-07T09:38:29.346Z,97663.19
2022-09-07T09:40:58.342Z,97660.75
2022-09-07T09:43:28.760Z,97661.66
2022-09-07T09:46:13.329Z,97663.06
2022-09-07T09:48:41.697Z,97665.84
2022-09-07T09:54:02.432Z,97653.28
2022-09-07T09:56:44.400Z,97644.13
2022-09-07T10:05:29.735Z,97635.22
2022-09-07T10:07:57.133Z,97627.31
2022-09-07T10:10:26.216Z,97632.25
2022-09-07T10:12:54.702Z,97634.16
2022-09-07T10:15:40.926Z,97621.75
2022-09-07T10:18:18.887Z,97613.94
2022-09-07T10:20:45.723Z,97623.66
2022-09-07T10:23:24.155Z,97622.78
2022-09-07T10:25:51.343Z,97614.31
2022-09-07T10:29:06.567Z,97616.25
2022-09-07T10:31:31.920Z,97609.94
2022-09-07T10:37:08.950Z,97612.50
2022-09-07T10:39:43.810Z,97601.06
2022-09-07T10:42:17.060Z,97601.75
2022-09-07T10:44:52.284Z,97597.38
2022-09-07T10:47:44.483Z,97595.59
2022-09-07T10:50:33.336Z,97598.63
2022-09-07T10:53:43.147Z,97608.63
2022-09-07T10:56:10.481Z,97599.66
2022-09-07T10:59:04.787Z,97591.97
2022-09-07T11:01:46.830Z,97590.91
2022-09-07T11:04:49.874Z,97591.25
2022-09-07T11:07:44.641Z,97588.13
2022-09-07T11:10:12.193Z,97577.66
2022-09-07T11:12:42.027Z,97571.41
2022-09-07T11:15:24.205Z,97577.28
2022-09-07T11:18:28.814Z,97575.97
2022-09-07T11:21:01.357Z,97571.56
2022-09-07T11:23:44.327Z,97576.25
2022-09-07T11:26:23.844Z,97573.91
2022-09-07T11:31:48.203Z,97557.94
2022-09-07T11:34:25.537Z,97552.03
2022-09-07T11:37:20.043Z,97548.50
2022-09-07T11:39:55.467Z,97540.94
2022-09-07T11:42:48.029Z,97546.56
2022-09-07T11:45:31.144Z,97537.38
2022-09-07T11:48:11.438Z,97534.59
2022-09-07T11:50:47.255Z,97540.28
2022-09-07T11:53:47.034Z,97539.56
2022-09-07T11:56:18.958Z,97534.16
2022-09-07T11:59:05.470Z,97539.16
2022-09-07T12:01:40.200Z,97545.53
2022-09-07T12:04:19.062Z,97535.69
2022-09-07T12:07:00.803Z,97529.19
2022-09-07T12:09:52.248Z,97527.72
2022-09-07T12:12:49.934Z,97528.91
2022-09-07T12:15:44.537Z,97521.25
2022-09-07T12:18:32.367Z,97528.81
2022-09-07T12:20:59.465Z,97530.09
2022-09-07T12:23:32.096Z,97521.34
2022-09-07T12:26:34.388Z,97515.97
2022-09-07T12:29:02.535Z,97512.13
2022-09-07T12:32:52.402Z,97511.41
2022-09-07T12:34:51.653Z,97509.00
2022-09-07T12:37:27.921Z,97512.22
2022-09-07T12:40:28.923Z,97494.94
2022-09-07T12:43:13.976Z,97501.84
2022-09-07T12:45:40.917Z,97506.81
2022-09-07T12:48:17.627Z,97500.84
2022-09-07T12:50:56.349Z,97500.53
2022-09-07T12:53:33.662Z,97492.91
2022-09-07T12:56:17.063Z,97485.94
2022-09-07T12:59:16.057Z,97491.47
2022-09-07T13:02:03.696Z,97489.28
2022-09-07T13:05:06.358Z,97497.75
2022-09-07T13:08:04.085Z,97488.69
2022-09-07T13:10:37.803Z,97487.13
2022-09-07T13:16:11.744Z,97488.72
2022-09-07T13:18:43.777Z,97492.06
2022-09-07T13:21:12.023Z,97488.25
2022-09-07T13:23:40.063Z,97486.25
2022-09-07T13:26:10.833Z,97492.03
2022-09-07T13:28:56.101Z,97481.72
2022-09-07T13:32:08.017Z,97468.38
2022-09-07T13:34:34.973Z,97466.41
2022-09-07T13:37:05.608Z,97465.53
2022-09-07T13:39:40.878Z,97473.84
2022-09-07T13:42:16.516Z,97467.94
2022-09-07T13:45:01.609Z,97466.03
2022-09-07T13:47:49.973Z,97465.72
2022-09-07T13:50:55.565Z,97473.00
2022-09-07T13:53:28.259Z,97471.28
2022-09-07T13:56:14.652Z,97466.94
2022-09-07T13:58:44.271Z,97468.38
2022-09-07T14:01:13.683Z,97476.59
2022-09-07T14:03:49.686Z,97474.63
2022-09-07T14:06:28.219Z,97481.69
2022-09-07T14:09:01.636Z,97492.09
2022-09-07T14:11:42.629Z,97506.81
2022-09-07T14:14:18.976Z,97523.31
2022-09-07T14:17:02.927Z,97533.88
2022-09-07T14:19:39.894Z,97547.19
2022-09-07T14:22:25.101Z,97564.00
2022-09-07T14:24:55.658Z,97573.25
2022-09-07T14:27:42.969Z,97591.41
2022-09-07T14:30:19.492Z,97605.09
2022-09-07T14:32:48.920Z,97622.91
2022-09-07T14:35:18.820Z,97637.91
2022-09-07T14:37:48.046Z,97638.91
2022-09-07T14:40:22.022Z,97636.66
2022-09-07T14:42:50.271Z,97640.66
2022-09-07T14:45:23.271Z,97647.78
2022-09-07T14:47:52.867Z,97652.47
2022-09-07T14:50:39.196Z,97657.66
2022-09-07T14:56:09.222Z,97652.75
2022-09-07T14:58:36.297Z,97651.16
2022-09-07T15:04:02.716Z,97641.06
2022-09-07T15:07:02.170Z,97633.06
2022-09-07T15:09:36.519Z,97630.72
2022-09-07T15:12:36.391Z,97625.72
2022-09-07T15:15:26.310Z,97624.00
2022-09-07T15:17:55.679Z,97621.44
2022-09-07T15:20:44.147Z,97623.16
2022-09-07T15:23:19.508Z,97610.50
2022-09-07T15:25:53.602Z,97599.38
2022-09-07T15:34:17.068Z,97602.19
2022-09-07T15:36:51.228Z,97600.72
2022-09-07T15:39:27.693Z,97601.53
2022-09-07T15:41:54.865Z,97597.47
2022-09-07T15:44:26.171Z,97593.97
2022-09-07T15:49:49.235Z,97597.88
2022-09-07T15:52:18.187Z,97606.31
2022-09-07T15:54:45.186Z,97620.56
2022-09-07T15:59:59.118Z,97621.75
2022-09-07T16:05:12.993Z,97619.25
2022-09-07T16:10:31.011Z,97611.47
2022-09-07T16:13:02.844Z,97618.25
2022-09-07T16:15:45.108Z,97622.56
2022-09-07T16:18:16.414Z,97624.84
2022-09-07T16:20:44.598Z,97624.44
2022-09-07T16:23:14.340Z,97626.91
2022-09-07T16:25:42.341Z,97627.31
2022-09-07T16:28:10.172Z,97639.84
2022-09-07T16:30:40.719Z,97641.72
2022-09-07T16:33:09.159Z,97639.03
2022-09-07T16:35:36.135Z,97645.41
2022-09-07T16:40:51.047Z,97657.34
2022-09-07T16:43:18.166Z,97678.09
2022-09-07T16:48:33.826Z,97690.81
2022-09-07T16:51:02.724Z,97694.09
2022-09-07T16:53:31.726Z,97682.31
2022-09-07T16:56:16.949Z,97679.66
2022-09-07T16:58:54.839Z,97688.66
2022-09-07T17:01:34.514Z,97691.53
2022-09-07T17:04:05.548Z,97695.63
2022-09-07T17:06:36.795Z,97700.81
2022-09-07T17:09:03.771Z,97686.59
2022-09-07T17:11:33.459Z,97680.13
2022-09-07T17:14:00.373Z,97684.34
2022-09-07T17:16:32.714Z,97678.59
2022-09-07T17:21:54.055Z,97676.47
2022-09-07T17:24:21.414Z,97660.75
2022-09-07T17:26:48.254Z,97655.22
2022-09-07T17:29:15.433Z,97654.84
2022-09-07T17:34:30.352Z,97645.78
2022-09-07T17:36:57.729Z,97624.59
2022-09-07T17:39:24.934Z,97631.81
2022-09-07T17:41:53.191Z,97623.56
2022-09-07T17:44:21.920Z,97621.53
2022-09-07T17:46:48.864Z,97617.81
2022-09-07T17:49:17.022Z,97619.84
2022-09-07T17:51:45.288Z,97621.00
2022-09-07T17:54:16.024Z,97622.56
2022-09-07T17:56:44.729Z,97613.41
2022-09-07T18:01:59.084Z,97601.22
2022-09-07T18:04:26.377Z,97606.47
2022-09-07T18:06:54.562Z,97594.94
2022-09-07T18:09:22.051Z,97595.75
2022-09-07T18:11:50.089Z,97587.44
2022-09-07T18:14:18.902Z,97589.50
2022-09-07T18:16:49.404Z,97575.66
2022-09-07T18:19:18.187Z,97582.16
2022-09-07T18:21:47.927Z,97579.59
2022-09-07T18:24:19.434Z,97572.94
2022-09-07T18:26:52.203Z,97565.13
2022-09-07T18:29:30.183Z,97557.47
2022-09-07T18:31:58.947Z,97567.78
2022-09-07T18:34:26.492Z,97567.34
2022-09-07T18:36:53.840Z,97559.19
2022-09-07T18:39:22.018Z,97551.75
2022-09-07T18:41:48.923Z,97557.66
2022-09-07T18:47:02.776Z,97554.53
2022-09-07T18:49:29.505Z,97552.97
2022-09-07T18:54:43.698Z,97548.81
2022-09-07T18:57:10.356Z,97551.22
2022-09-07T18:59:37.339Z,97542.75
2022-09-07T19:02:06.268Z,97549.28
2022-09-07T19:07:23.993Z,97542.13
2022-09-07T19:09:54.282Z,97537.44
2022-09-07T19:12:21.278Z,97539.50
2022-09-07T19:14:47.932Z,97539.72
2022-09-07T19:17:14.951Z,97545.66
2022-09-07T19:19:42.143Z,97546.09
2022-09-07T19:22:09.125Z,97551.03
2022-09-07T19:24:35.831Z,97549.00
2022-09-07T19:27:02.773Z,97536.31
2022-09-07T19:29:29.824Z,97542.47
2022-09-07T19:32:06.969Z,97549.50
2022-09-07T19:34:35.867Z,97543.69
2022-09-07T19:37:04.009Z,97558.59
2022-09-07T19:39:30.873Z,97560.00
2022-09-07T19:41:57.767Z,97564.88
2022-09-07T19:44:24.504Z,97568.56
2022-09-07T19:46:51.403Z,97563.69
2022-09-07T19:49:18.244Z,97553.84
2022-09-07T19:51:45.647Z,97548.47
2022-09-07T19:54:14.646Z,97540.47
2022-09-07T19:56:42.902Z,97535.56
2022-09-07T19:59:10.070Z,97536.50
2022-09-07T20:01:38.727Z,97528.44
2022-09-07T20:04:12.256Z,97528.41
2022-09-07T20:06:41.742Z,97518.13
2022-09-07T20:09:09.027Z,97518.91
2022-09-07T20:11:40.855Z,97521.34
2022-09-07T20:14:10.886Z,97524.25
2022-09-07T20:16:39.426Z,97520.28
2022-09-07T20:19:07.761Z,97510.88
2022-09-07T20:21:36.945Z,97506.69
2022-09-07T20:24:04.425Z,97502.09
2022-09-07T20:26:32.392Z,97509.91
2022-09-07T20:29:23.449Z,97511.94
2022-09-07T20:31:47.235Z,97507.81
2022-09-07T20:34:14.785Z,97506.16
2022-09-07T20:36:42.106Z,97511.38
2022-09-07T20:39:15.814Z,97516.78
2022-09-07T20:41:42.810Z,97512.25
2022-09-07T20:44:10.055Z,97513.69
2022-09-07T20:46:36.926Z,97518.31
2022-09-07T20:49:04.813Z,97528.19
2022-09-07T20:51:32.194Z,97529.31
2022-09-07T20:53:59.147Z,97535.38
2022-09-07T20:56:29.480Z,97531.22
2022-09-07T20:59:01.783Z,97525.91
2022-09-07T21:01:30.610Z,97534.25
2022-09-07T21:03:59.199Z,97521.59
2022-09-07T21:06:27.511Z,97524.50
2022-09-07T21:08:56.161Z,97515.16
2022-09-07T21:11:29.018Z,97523.13
2022-09-07T21:14:03.666Z,97519.44
2022-09-07T21:16:31.076Z,97520.47
2022-09-07T21:19:00.138Z,97509.84
2022-09-07T21:21:28.881Z,97504.50
2022-09-07T21:24:00.863Z,97510.47
2022-09-07T21:26:28.981Z,97511.94
2022-09-07T21:29:01.280Z,97505.34
2022-09-07T21:31:30.146Z,97493.88
2022-09-07T21:33:59.576Z,97501.84
2022-09-07T21:36:27.635Z,97503.78
2022-09-07T21:38:54.691Z,97499.19
2022-09-07T21:41:23.897Z,97499.94
2022-09-07T21:44:01.812Z,97495.97
2022-09-07T21:46:31.815Z,97498.69
2022-09-07T21:48:59.754Z,97495.41
2022-09-07T21:51:27.465Z,97498.50
2022-09-07T21:53:56.030Z,97501.66
2022-09-07T21:56:23.059Z,97499.72
2022-09-07T21:58:57.459Z,97499.47
2022-09-07T22:01:26.263Z,97497.84
2022-09-07T22:04:01.776Z,97491.72
2022-09-07T22:06:29.750Z,97494.66
2022-09-07T22:08:56.646Z,97492.72
2022-09-07T22:11:25.916Z,97487.78
2022-09-07T22:14:01.980Z,97482.88
2022-09-07T22:16:29.723Z,97485.81
2022-09-07T22:18:56.743Z,97477.53
2022-09-07T22:21:25.943Z,97470.97
2022-09-07T22:23:56.052Z,97480.19
2022-09-07T22:26:25.398Z,97471.88
2022-09-07T22:28:52.971Z,97478.00
2022-09-07T22:31:25.053Z,97475.25
2022-09-07T22:33:52.925Z,97481.38
2022-09-07T22:36:20.970Z,97474.81
2022-09-07T22:38:49.896Z,97465.28
2022-09-07T22:41:19.699Z,97460.06
2022-09-07T22:43:47.613Z,97455.38
2022-09-07T22:46:14.945Z,97452.56
2022-09-07T22:48:42.132Z,97458.88
2022-09-07T22:51:09.027Z,97456.38
2022-09-07T22:53:37.925Z,97451.28
2022-09-07T22:56:10.867Z,97453.56
2022-09-07T22:58:38.612Z,97449.91
2022-09-07T23:01:06.478Z,97440.03
2022-09-07T23:03:34.930Z,97435.41
2022-09-07T23:06:02.835Z,97440.81
2022-09-07T23:08:30.004Z,97445.84
2022-09-07T23:11:02.912Z,97435.28
2022-09-07T23:13:30.031Z,97438.31
2022-09-07T23:15:57.114Z,97427.22
2022-09-07T23:18:24.261Z,97428.03
2022-09-07T23:20:50.942Z,97422.28
2022-09-07T23:23:18.159Z,97424.56
2022-09-07T23:25:44.892Z,97431.59
2022-09-07T23:28:12.452Z,97415.25
2022-09-07T23:30:42.624Z,97415.31
2022-09-07T23:33:09.314Z,97411.13
2022-09-07T23:35:36.328Z,97401.06
2022-09-07T23:38:03.530Z,97399.41
2022-09-07T23:40:31.782Z,97398.09
2022-09-07T23:42:58.815Z,97398.84
2022-09-07T23:45:25.611Z,97402.84
2022-09-07T23:47:53.181Z,97405.88
2022-09-07T23:50:20.050Z,97404.72
2022-09-07T23:52:47.253Z,97402.44
2022-09-07T23:55:13.914Z,97406.28
2022-09-07T23:57:40.713Z,97397.16
